createdAt,value
2018-02-22T00:01:00.157Z,-2.19
2018-02-22T00:03:27.808Z,-2.01
2018-02-22T00:05:55.350Z,-2.25
2018-02-22T00:08:23.022Z,-2.47
2018-02-22T00:10:51.336Z,-2.64
2018-02-22T00:13:19.115Z,-2.71
2018-02-22T00:15:46.928Z,-2.76
2018-02-22T00:18:14.920Z,-2.87
2018-02-22T00:20:42.611Z,-2.85
2018-02-22T00:23:10.424Z,-2.67
2018-02-22T00:25:38.061Z,-2.90
2018-02-22T00:28:05.646Z,-2.93
2018-02-22T00:30:33.441Z,-3.04
2018-02-22T00:33:01.170Z,-3.05
2018-02-22T00:35:28.990Z,-3.09
2018-02-22T00:37:56.676Z,-3.16
2018-02-22T00:40:24.845Z,-3.05
2018-02-22T00:42:52.454Z,-2.87
2018-02-22T00:45:20.334Z,-2.73
2018-02-22T00:47:48.074Z,-2.60
2018-02-22T00:50:15.660Z,-2.80
2018-02-22T00:52:43.229Z,-2.58
2018-02-22T00:55:10.801Z,-2.65
2018-02-22T00:57:38.356Z,-2.54
2018-02-22T01:00:05.931Z,-2.68
2018-02-22T01:02:33.539Z,-2.57
2018-02-22T01:05:01.094Z,-2.64
2018-02-22T01:07:28.701Z,-2.69
2018-02-22T01:09:57.440Z,-2.59
2018-02-22T01:12:25.088Z,-2.86
2018-02-22T01:14:52.603Z,-2.80
2018-02-22T01:17:20.265Z,-2.97
2018-02-22T01:19:47.979Z,-2.70
2018-02-22T01:22:15.638Z,-2.82
2018-02-22T01:24:43.444Z,-2.97
2018-02-22T01:27:11.192Z,-3.00
2018-02-22T01:29:38.853Z,-3.01
2018-02-22T01:32:06.462Z,-3.10
2018-02-22T01:34:34.155Z,-3.12
2018-02-22T01:37:01.799Z,-3.13
2018-02-22T01:39:29.509Z,-3.00
2018-02-22T01:41:57.480Z,-2.88
2018-02-22T01:44:25.061Z,-2.93
2018-02-22T01:46:52.701Z,-2.95
2018-02-22T01:49:20.297Z,-2.61
2018-02-22T01:51:48.126Z,-2.79
2018-02-22T01:54:15.768Z,-2.89
2018-02-22T01:56:43.324Z,-3.02
2018-02-22T01:59:10.985Z,-3.13
2018-02-22T02:01:38.904Z,-3.13
2018-02-22T02:04:06.456Z,-2.98
2018-02-22T02:06:34.198Z,-2.95
2018-02-22T02:09:01.950Z,-3.01
2018-02-22T02:11:29.927Z,-3.16
2018-02-22T02:13:57.476Z,-3.33
2018-02-22T02:16:26.032Z,-3.35
2018-02-22T02:18:53.593Z,-3.34
2018-02-22T02:21:22.536Z,-3.46
2018-02-22T02:23:50.194Z,-3.51
2018-02-22T02:26:17.734Z,-3.49
2018-02-22T02:28:45.520Z,-3.30
2018-02-22T02:31:13.086Z,-3.26
2018-02-22T02:33:41.235Z,-3.32
2018-02-22T02:36:08.836Z,-3.44
2018-02-22T02:38:36.492Z,-3.32
2018-02-22T02:41:04.449Z,-3.48
2018-02-22T02:43:32.281Z,-3.61
2018-02-22T02:46:00.112Z,-3.61
2018-02-22T02:48:27.661Z,-3.62
2018-02-22T02:50:55.332Z,-3.62
2018-02-22T02:53:22.935Z,-3.50
2018-02-22T02:55:50.526Z,-3.27
2018-02-22T02:58:18.335Z,-3.27
2018-02-22T03:00:46.149Z,-3.41
2018-02-22T03:03:14.037Z,-3.51
2018-02-22T03:05:41.697Z,-3.57
2018-02-22T03:08:09.506Z,-3.62
2018-02-22T03:10:37.162Z,-3.46
2018-02-22T03:13:05.506Z,-3.60
2018-02-22T03:15:33.221Z,-3.62
2018-02-22T03:18:01.096Z,-3.53
2018-02-22T03:20:28.804Z,-3.70
2018-02-22T03:22:56.534Z,-3.69
2018-02-22T03:25:24.081Z,-3.85
2018-02-22T03:27:51.852Z,-3.91
2018-02-22T03:30:19.510Z,-3.93
2018-02-22T03:32:47.213Z,-3.82
2018-02-22T03:35:15.799Z,-3.83
2018-02-22T03:37:43.928Z,-3.72
2018-02-22T03:40:11.548Z,-3.61
2018-02-22T03:42:39.159Z,-3.74
2018-02-22T03:45:07.819Z,-3.86
2018-02-22T03:47:35.741Z,-3.85
2018-02-22T03:50:03.515Z,-3.83
2018-02-22T03:52:31.250Z,-3.96
2018-02-22T03:54:58.912Z,-3.91
2018-02-22T03:57:26.608Z,-3.83
2018-02-22T03:59:54.270Z,-3.86
2018-02-22T04:02:22.027Z,-3.92
2018-02-22T04:04:49.691Z,-4.04
2018-02-22T04:07:17.886Z,-4.06
2018-02-22T04:09:45.534Z,-4.13
2018-02-22T04:12:13.091Z,-4.07
2018-02-22T04:14:40.794Z,-3.99
2018-02-22T04:17:08.335Z,-4.08
2018-02-22T04:19:36.016Z,-3.82
2018-02-22T04:22:03.694Z,-3.74
2018-02-22T04:24:31.315Z,-3.88
2018-02-22T04:26:58.928Z,-3.69
2018-02-22T04:29:26.523Z,-3.33
2018-02-22T04:31:54.200Z,-3.28
2018-02-22T04:34:21.895Z,-3.33
2018-02-22T04:36:49.451Z,-3.26
2018-02-22T04:39:17.060Z,-3.26
2018-02-22T04:41:44.771Z,-3.26
2018-02-22T04:44:12.532Z,-3.14
2018-02-22T04:46:40.256Z,-3.11
2018-02-22T04:49:07.814Z,-3.08
2018-02-22T04:51:36.337Z,-3.06
2018-02-22T04:54:03.983Z,-3.27
2018-02-22T04:56:31.555Z,-3.27
2018-02-22T04:58:59.279Z,-3.17
2018-02-22T05:01:26.917Z,-3.14
2018-02-22T05:03:54.465Z,-3.25
2018-02-22T05:06:22.007Z,-3.24
2018-02-22T05:08:49.624Z,-3.24
2018-02-22T05:11:17.720Z,-3.35
2018-02-22T05:13:45.263Z,-3.38
2018-02-22T05:16:13.216Z,-3.22
2018-02-22T05:18:40.827Z,-3.28
2018-02-22T05:21:08.940Z,-3.22
2018-02-22T05:23:36.614Z,-3.31
2018-02-22T05:26:04.439Z,-3.30
2018-02-22T05:28:32.004Z,-3.24
2018-02-22T05:30:59.801Z,-3.40
2018-02-22T05:33:27.639Z,-3.44
2018-02-22T05:35:55.190Z,-3.34
2018-02-22T05:38:22.854Z,-3.27
2018-02-22T05:40:50.434Z,-3.26
2018-02-22T05:43:18.626Z,-3.27
2018-02-22T05:45:46.180Z,-3.20
2018-02-22T05:48:14.816Z,-3.30
2018-02-22T05:50:42.431Z,-3.21
2018-02-22T05:53:10.054Z,-3.20
2018-02-22T05:55:37.702Z,-3.34
2018-02-22T05:58:05.501Z,-3.46
2018-02-22T06:00:33.203Z,-3.45
2018-02-22T06:03:00.745Z,-3.51
2018-02-22T06:05:29.624Z,-3.51
2018-02-22T06:07:57.312Z,-3.37
2018-02-22T06:10:24.977Z,-3.45
2018-02-22T06:12:53.435Z,-3.56
2018-02-22T06:15:21.054Z,-3.48
2018-02-22T06:17:48.600Z,-3.43
2018-02-22T06:20:16.226Z,-3.34
2018-02-22T06:22:44.040Z,-3.36
2018-02-22T06:25:11.572Z,-3.41
2018-02-22T06:27:39.119Z,-3.47
2018-02-22T06:30:06.965Z,-3.38
2018-02-22T06:32:34.709Z,-3.35
2018-02-22T06:35:02.353Z,-3.34
2018-02-22T06:37:29.914Z,-3.38
2018-02-22T06:39:57.652Z,-3.32
2018-02-22T06:42:25.351Z,-3.23
2018-02-22T06:44:53.128Z,-3.22
2018-02-22T06:47:20.705Z,-3.32
2018-02-22T06:49:48.405Z,-3.38
2018-02-22T06:52:16.010Z,-3.32
2018-02-22T06:54:43.721Z,-3.20
2018-02-22T06:57:11.796Z,-3.06
2018-02-22T06:59:40.205Z,-3.11
2018-02-22T07:02:07.826Z,-2.80
2018-02-22T07:04:35.901Z,-2.96
2018-02-22T07:07:04.755Z,-2.88
2018-02-22T07:09:32.436Z,-2.84
2018-02-22T07:12:00.261Z,-2.80
2018-02-22T07:14:27.889Z,-2.67
2018-02-22T07:16:55.866Z,-2.53
2018-02-22T07:19:23.794Z,-2.47
2018-02-22T07:21:51.469Z,-2.44
2018-02-22T07:24:19.198Z,-2.25
2018-02-22T07:26:47.792Z,-2.20
2018-02-22T07:29:15.811Z,-2.10
2018-02-22T07:31:43.518Z,-2.26
2018-02-22T07:34:11.197Z,-2.17
2018-02-22T07:36:38.826Z,-2.22
2018-02-22T07:39:06.395Z,-2.19
2018-02-22T07:41:34.111Z,-2.35
2018-02-22T07:44:01.747Z,-2.22
2018-02-22T07:46:29.662Z,-2.02
2018-02-22T07:48:58.576Z,-2.21
2018-02-22T07:51:26.500Z,-2.00
2018-02-22T07:53:54.055Z,-1.98
2018-02-22T07:56:21.819Z,-1.76
2018-02-22T07:58:49.525Z,-1.96
2018-02-22T08:01:17.624Z,-1.87
2018-02-22T08:03:45.545Z,-2.17
2018-02-22T08:06:13.256Z,-2.28
2018-02-22T08:08:40.984Z,-2.13
2018-02-22T08:11:08.577Z,-2.18
2018-02-22T08:13:36.723Z,-2.31
2018-02-22T08:16:04.971Z,-2.18
2018-02-22T08:18:32.719Z,-1.89
2018-02-22T08:21:00.396Z,-2.07
2018-02-22T08:23:29.967Z,-1.86
2018-02-22T08:25:57.995Z,-1.84
2018-02-22T08:28:25.791Z,-1.65
2018-02-22T08:30:53.701Z,-1.39
2018-02-22T08:33:21.327Z,-1.26
2018-02-22T08:35:49.244Z,-1.41
2018-02-22T08:38:16.776Z,-1.47
2018-02-22T08:40:44.446Z,-1.26
2018-02-22T08:43:12.717Z,-1.15
2018-02-22T08:45:40.706Z,-1.08
2018-02-22T08:48:08.460Z,-0.93
2018-02-22T08:50:36.581Z,-0.83
2018-02-22T08:53:04.454Z,-1.32
2018-02-22T08:55:32.240Z,-1.06
2018-02-22T08:57:59.887Z,-0.88
2018-02-22T09:00:27.582Z,-0.79
2018-02-22T09:02:55.191Z,-0.81
2018-02-22T09:05:23.105Z,-0.89
2018-02-22T09:07:51.072Z,-1.03
2018-02-22T09:10:18.620Z,-1.19
2018-02-22T09:12:46.356Z,-1.01
2018-02-22T09:15:14.344Z,-0.85
2018-02-22T09:17:41.975Z,-0.87
2018-02-22T09:20:09.680Z,-0.60
2018-02-22T09:22:37.516Z,-1.04
2018-02-22T09:25:05.181Z,-0.86
2018-02-22T09:27:33.010Z,-0.61
2018-02-22T09:30:01.304Z,-0.69
2018-02-22T09:32:28.936Z,-0.66
2018-02-22T09:34:56.499Z,-0.72
2018-02-22T09:37:24.053Z,-0.65
2018-02-22T09:39:51.792Z,-0.46
2018-02-22T09:42:19.690Z,-0.55
2018-02-22T09:44:47.522Z,-0.49
2018-02-22T09:47:15.825Z,-0.10
2018-02-22T09:49:43.357Z,-0.28
2018-02-22T09:52:11.405Z,-0.28
2018-02-22T09:54:39.320Z,-0.11
2018-02-22T09:57:07.114Z,0.51
2018-02-22T09:59:34.956Z,0.87
2018-02-22T10:02:02.995Z,3.20
2018-02-22T10:04:30.606Z,3.36
2018-02-22T10:06:58.281Z,3.91
2018-02-22T10:09:25.915Z,4.39
2018-02-22T10:11:53.644Z,5.51
2018-02-22T10:14:21.254Z,6.48
2018-02-22T10:16:49.460Z,5.95
2018-02-22T10:19:18.101Z,6.78
2018-02-22T10:21:45.767Z,3.28
2018-02-22T10:24:13.789Z,4.35
2018-02-22T10:26:41.438Z,4.13
2018-02-22T10:29:09.092Z,3.17
2018-02-22T10:31:37.108Z,2.23
2018-02-22T10:34:05.040Z,2.35
2018-02-22T10:36:32.741Z,3.65
2018-02-22T10:39:01.018Z,3.80
2018-02-22T10:41:28.725Z,3.35
2018-02-22T10:43:56.896Z,3.04
2018-02-22T10:46:24.526Z,2.95
2018-02-22T10:48:52.126Z,3.89
2018-02-22T10:51:20.043Z,3.59
2018-02-22T10:53:47.840Z,2.53
2018-02-22T10:56:15.915Z,2.89
2018-02-22T10:58:43.837Z,3.25
2018-02-22T11:01:17.147Z,3.44
2018-02-22T11:03:45.125Z,3.27
2018-02-22T11:06:12.737Z,3.71
2018-02-22T11:08:40.651Z,5.04
2018-02-22T11:11:08.415Z,6.34
2018-02-22T11:13:36.895Z,4.68
2018-02-22T11:16:04.436Z,4.64
2018-02-22T11:18:32.950Z,5.44
2018-02-22T11:21:00.638Z,6.17
2018-02-22T11:23:28.726Z,4.67
2018-02-22T11:25:56.595Z,4.02
2018-02-22T11:28:24.331Z,4.44
2018-02-22T11:30:52.966Z,5.15
2018-02-22T11:33:20.615Z,7.29
2018-02-22T11:35:49.149Z,5.98
2018-02-22T11:38:17.453Z,6.69
2018-02-22T11:40:45.053Z,7.17
2018-02-22T11:43:12.811Z,6.89
2018-02-22T11:45:40.572Z,6.95
2018-02-22T11:48:08.295Z,6.53
2018-02-22T11:50:35.912Z,7.16
2018-02-22T11:53:03.771Z,6.70
2018-02-22T11:55:31.490Z,5.43
2018-02-22T11:57:59.460Z,5.40
2018-02-22T12:00:27.619Z,5.68
2018-02-22T12:02:55.155Z,5.28
2018-02-22T12:05:22.780Z,6.04
2018-02-22T12:07:50.725Z,5.42
2018-02-22T12:10:18.405Z,6.19
2018-02-22T12:12:46.154Z,5.65
2018-02-22T12:15:14.831Z,5.18
2018-02-22T12:17:42.385Z,7.50
2018-02-22T12:20:10.062Z,5.37
2018-02-22T12:22:38.546Z,5.46
2018-02-22T12:25:06.472Z,4.34
2018-02-22T12:27:34.262Z,3.69
2018-02-22T12:30:02.038Z,5.02
2018-02-22T12:32:29.720Z,5.52
2018-02-22T12:34:58.614Z,3.55
2018-02-22T12:37:26.986Z,3.19
2018-02-22T12:39:54.767Z,3.64
2018-02-22T12:42:22.519Z,4.74
2018-02-22T12:44:50.261Z,4.50
2018-02-22T12:47:18.058Z,5.92
2018-02-22T12:49:45.628Z,5.81
2018-02-22T12:52:13.441Z,5.09
2018-02-22T12:54:41.173Z,5.11
2018-02-22T12:57:09.762Z,5.39
2018-02-22T12:59:37.580Z,4.68
2018-02-22T13:02:05.570Z,5.91
2018-02-22T13:04:33.279Z,6.79
2018-02-22T13:07:01.121Z,6.78
2018-02-22T13:09:28.810Z,5.37
2018-02-22T13:11:56.927Z,5.63
2018-02-22T13:14:24.886Z,5.24
2018-02-22T13:16:52.566Z,5.24
2018-02-22T13:19:20.419Z,4.99
2018-02-22T13:21:48.041Z,4.95
2018-02-22T13:24:16.277Z,4.49
2018-02-22T13:26:43.941Z,6.13
2018-02-22T13:29:11.594Z,5.57
2018-02-22T13:31:39.392Z,5.71
2018-02-22T13:34:19.256Z,5.27
2018-02-22T13:36:46.920Z,3.93
2018-02-22T13:39:14.880Z,3.99
2018-02-22T13:41:42.446Z,4.57
2018-02-22T13:44:22.540Z,3.96
2018-02-22T13:46:50.208Z,4.43
2018-02-22T13:49:29.667Z,4.77
2018-02-22T13:51:57.340Z,3.99
2018-02-22T13:54:25.079Z,3.57
2018-02-22T13:57:04.907Z,4.07
2018-02-22T13:59:32.477Z,3.60
2018-02-22T14:02:12.126Z,4.30
2018-02-22T14:04:39.926Z,3.57
2018-02-22T14:07:07.571Z,2.79
2018-02-22T14:09:35.757Z,3.04
2018-02-22T14:12:03.637Z,3.54
2018-02-22T14:14:31.525Z,3.46
2018-02-22T14:16:59.582Z,3.39
2018-02-22T14:19:27.452Z,3.95
2018-02-22T14:21:55.277Z,3.38
2018-02-22T14:24:23.121Z,3.16
2018-02-22T14:26:50.802Z,3.98
2018-02-22T14:29:18.596Z,3.63
2018-02-22T14:31:46.840Z,3.36
2018-02-22T14:34:14.750Z,3.18
2018-02-22T14:36:42.621Z,3.02
2018-02-22T14:39:10.315Z,2.91
2018-02-22T14:41:37.929Z,2.48
2018-02-22T14:44:05.752Z,2.20
2018-02-22T14:46:33.410Z,2.36
2018-02-22T14:49:01.086Z,2.39
2018-02-22T14:51:28.997Z,2.04
2018-02-22T14:53:56.740Z,2.12
2018-02-22T14:56:24.670Z,2.09
2018-02-22T14:58:53.199Z,1.87
2018-02-22T15:01:20.893Z,1.79
2018-02-22T15:03:48.589Z,1.76
2018-02-22T15:06:16.430Z,1.80
2018-02-22T15:08:43.966Z,1.77
2018-02-22T15:11:11.916Z,1.71
2018-02-22T15:13:39.701Z,1.95
2018-02-22T15:16:07.387Z,1.81
2018-02-22T15:18:36.795Z,1.75
2018-02-22T15:21:04.408Z,1.88
2018-02-22T15:23:32.110Z,1.89
2018-02-22T15:26:00.091Z,1.91
2018-02-22T15:28:27.812Z,1.76
2018-02-22T15:30:55.790Z,2.04
2018-02-22T15:33:23.461Z,1.95
2018-02-22T15:35:51.264Z,1.70
2018-02-22T15:38:18.862Z,1.91
2018-02-22T15:40:47.221Z,1.74
2018-02-22T15:43:14.776Z,1.63
2018-02-22T15:45:42.536Z,1.46
2018-02-22T15:48:10.272Z,1.46
2018-02-22T15:50:38.448Z,1.47
2018-02-22T15:53:06.221Z,1.53
2018-02-22T15:55:34.040Z,1.51
2018-02-22T15:58:02.297Z,1.40
2018-02-22T16:00:29.999Z,1.32
2018-02-22T16:02:57.702Z,1.36
2018-02-22T16:05:25.274Z,1.40
2018-02-22T16:07:52.837Z,1.36
2018-02-22T16:10:20.432Z,1.30
2018-02-22T16:12:48.059Z,1.45
2018-02-22T16:15:15.848Z,1.37
2018-02-22T16:17:43.487Z,1.30
2018-02-22T16:20:11.127Z,1.36
2018-02-22T16:22:39.113Z,1.46
2018-02-22T16:25:06.707Z,1.34
2018-02-22T16:27:34.428Z,1.29
2018-02-22T16:30:02.132Z,1.24
2018-02-22T16:32:29.873Z,1.29
2018-02-22T16:34:57.833Z,1.10
2018-02-22T16:37:25.668Z,1.13
2018-02-22T16:39:53.516Z,1.07
2018-02-22T16:42:21.766Z,1.13
2018-02-22T16:44:49.408Z,1.08
2018-02-22T16:47:16.985Z,0.99
2018-02-22T16:49:44.715Z,1.07
2018-02-22T16:52:12.498Z,1.04
2018-02-22T16:54:40.042Z,1.06
2018-02-22T16:57:07.908Z,1.16
2018-02-22T16:59:35.486Z,1.03
2018-02-22T17:02:03.444Z,1.00
2018-02-22T17:04:31.218Z,0.98
2018-02-22T17:06:59.446Z,1.03
2018-02-22T17:09:27.372Z,0.94
2018-02-22T17:11:55.025Z,0.93
2018-02-22T17:14:22.616Z,0.97
2018-02-22T17:16:50.414Z,1.02
2018-02-22T17:19:18.245Z,0.88
2018-02-22T17:21:45.891Z,0.95
2018-02-22T17:24:13.588Z,0.91
2018-02-22T17:26:46.861Z,0.92
2018-02-22T17:29:20.091Z,0.87
2018-02-22T17:31:53.486Z,0.87
2018-02-22T17:34:21.436Z,0.92
2018-02-22T17:39:54.782Z,0.84
2018-02-22T17:42:22.526Z,0.84
2018-02-22T17:44:50.278Z,0.93
2018-02-22T17:47:18.967Z,0.82
2018-02-22T17:49:46.766Z,0.90
2018-02-22T17:52:15.353Z,0.88
2018-02-22T17:54:43.106Z,0.92
2018-02-22T17:57:10.957Z,1.04
2018-02-22T17:59:38.777Z,0.96
2018-02-22T18:02:07.153Z,1.02
2018-02-22T18:04:35.408Z,0.86
2018-02-22T18:07:03.017Z,0.77
2018-02-22T18:09:30.839Z,0.89
2018-02-22T18:11:58.921Z,0.90
2018-02-22T18:14:26.721Z,0.97
2018-02-22T18:16:54.480Z,0.93
2018-02-22T18:19:22.418Z,0.80
2018-02-22T18:21:50.002Z,0.78
2018-02-22T18:24:17.634Z,0.80
2018-02-22T18:26:46.281Z,0.98
2018-02-22T18:29:14.099Z,0.87
2018-02-22T18:31:42.016Z,0.91
2018-02-22T18:34:09.802Z,0.88
2018-02-22T18:36:37.467Z,0.82
2018-02-22T18:39:11.457Z,0.76
2018-02-22T18:41:45.526Z,0.82
2018-02-22T18:44:18.756Z,0.78
2018-02-22T18:46:46.426Z,0.79
2018-02-22T18:49:14.055Z,0.72
2018-02-22T18:51:41.940Z,0.75
2018-02-22T18:54:09.572Z,0.75
2018-02-22T18:56:37.976Z,0.83
2018-02-22T18:59:05.644Z,0.76
2018-02-22T19:01:33.458Z,0.77
2018-02-22T19:04:01.687Z,0.71
2018-02-22T19:06:29.837Z,0.74
2018-02-22T19:08:57.654Z,0.66
2018-02-22T19:11:25.282Z,0.66
2018-02-22T19:13:53.085Z,0.70
2018-02-22T19:16:20.791Z,0.62
2018-02-22T19:18:48.610Z,0.66
2018-02-22T19:21:17.100Z,0.60
2018-02-22T19:23:45.443Z,0.61
2018-02-22T19:26:13.102Z,0.63
2018-02-22T19:28:40.722Z,0.58
2018-02-22T19:31:08.473Z,0.61
2018-02-22T19:33:36.098Z,0.63
2018-02-22T19:36:03.782Z,0.59
2018-02-22T19:38:31.491Z,0.64
2018-02-22T19:40:59.562Z,0.54
2018-02-22T19:43:27.254Z,0.57
2018-02-22T19:45:54.877Z,0.59
2018-02-22T19:48:22.716Z,0.60
2018-02-22T19:50:50.366Z,0.56
2018-02-22T19:53:18.017Z,0.54
2018-02-22T19:55:46.003Z,0.58
2018-02-22T19:58:13.693Z,0.59
2018-02-22T20:00:41.475Z,0.50
2018-02-22T20:03:09.113Z,0.62
2018-02-22T20:05:36.972Z,0.55
2018-02-22T20:08:04.754Z,0.45
2018-02-22T20:10:32.570Z,0.58
2018-02-22T20:13:00.186Z,0.43
2018-02-22T20:15:27.960Z,0.49
2018-02-22T20:17:55.615Z,0.44
2018-02-22T20:20:23.183Z,0.43
2018-02-22T20:22:51.051Z,0.48
2018-02-22T20:25:18.876Z,0.57
2018-02-22T20:27:46.737Z,0.45
2018-02-22T20:30:15.204Z,0.44
2018-02-22T20:32:43.522Z,0.39
2018-02-22T20:35:11.300Z,0.45
2018-02-22T20:37:38.932Z,0.50
2018-02-22T20:40:06.777Z,0.59
2018-02-22T20:42:34.495Z,0.51
2018-02-22T20:45:02.425Z,0.44
2018-02-22T20:47:30.704Z,0.32
2018-02-22T20:49:58.421Z,0.36
2018-02-22T20:52:27.690Z,0.31
2018-02-22T20:57:58.939Z,0.25
2018-02-22T21:00:26.771Z,0.24
2018-02-22T21:02:54.541Z,0.28
2018-02-22T21:05:22.413Z,0.26
2018-02-22T21:07:49.951Z,0.30
2018-02-22T21:10:17.952Z,0.25
2018-02-22T21:12:46.008Z,0.27
2018-02-22T21:15:13.872Z,0.21
2018-02-22T21:17:41.647Z,0.28
2018-02-22T21:20:10.490Z,0.31
2018-02-22T21:22:38.882Z,0.23
2018-02-22T21:25:06.803Z,0.36
2018-02-22T21:27:34.647Z,0.32
2018-02-22T21:30:02.283Z,0.18
2018-02-22T21:32:30.043Z,0.18
2018-02-22T21:34:57.842Z,0.25
2018-02-22T21:37:25.733Z,0.28
2018-02-22T21:39:53.791Z,0.26
2018-02-22T21:42:21.361Z,0.24
2018-02-22T21:44:49.291Z,0.29
2018-02-22T21:47:17.385Z,0.23
2018-02-22T21:49:44.967Z,0.30
2018-02-22T21:52:12.761Z,0.33
2018-02-22T21:54:40.442Z,0.27
2018-02-22T21:57:08.152Z,0.20
2018-02-22T21:59:35.965Z,0.13
2018-02-22T22:02:03.620Z,0.10
2018-02-22T22:04:31.181Z,0.16
2018-02-22T22:06:58.710Z,0.21
2018-02-22T22:09:26.315Z,0.14
2018-02-22T22:11:54.097Z,0.11
2018-02-22T22:14:21.678Z,0.34
2018-02-22T22:16:49.480Z,0.21
2018-02-22T22:19:17.479Z,0.19
2018-02-22T22:21:45.326Z,0.17
2018-02-22T22:24:13.197Z,0.23
2018-02-22T22:26:41.050Z,0.24
2018-02-22T22:29:08.877Z,0.17
2018-02-22T22:31:36.718Z,0.23
2018-02-22T22:34:04.319Z,0.12
2018-02-22T22:36:32.291Z,0.16
2018-02-22T22:39:00.007Z,0.31
2018-02-22T22:41:27.891Z,0.10
2018-02-22T22:43:55.533Z,0.13
2018-02-22T22:46:23.076Z,0.23
2018-02-22T22:48:51.906Z,0.13
2018-02-22T22:51:19.551Z,0.09
2018-02-22T22:53:47.161Z,0.19
2018-02-22T22:56:14.837Z,0.12
2018-02-22T22:58:42.596Z,0.15
2018-02-22T23:01:10.271Z,0.12
2018-02-22T23:03:37.887Z,-0.08
2018-02-22T23:06:05.676Z,0.04
2018-02-22T23:08:33.261Z,-0.03
2018-02-22T23:11:00.919Z,-0.10
2018-02-22T23:13:28.596Z,-0.04
2018-02-22T23:15:56.191Z,0.06
2018-02-22T23:18:24.212Z,-0.01
2018-02-22T23:20:51.862Z,0.04
2018-02-22T23:23:19.425Z,0.00
2018-02-22T23:25:46.972Z,0.11
2018-02-22T23:28:14.531Z,-0.10
2018-02-22T23:30:42.364Z,-0.15
2018-02-22T23:33:09.898Z,-0.11
2018-02-22T23:35:37.478Z,0.02
2018-02-22T23:38:05.735Z,0.02
2018-02-22T23:40:38.109Z,-0.17
2018-02-22T23:43:06.129Z,-0.13
2018-02-22T23:45:34.626Z,-0.18
2018-02-22T23:48:02.556Z,-0.03
2018-02-22T23:50:30.138Z,-0.19
2018-02-22T23:52:57.752Z,-0.13
2018-02-22T23:55:25.427Z,-0.19
2018-02-22T23:57:53.178Z,-0.12
